Time;durP1;ratioP1;P1;durP2;ratioP2;P2;SDS_P1;SDS_P2;PMS_P1;PMS_P2;Temp;Humidity;BMP_temperature;BMP_pressure;BME280_temperature;BME280_humidity;BME280_pressure;Samples;Min_cycle;Max_cycle;Signal;HPM_P1;HPM_P2
2022/02/02 00:01:18;;;;;;;11.43;8.20;;;;;;;8.64;100.00;99388.88;4995509;28;20199;-78
2022/02/02 00:03:50;;;;;;;12.35;8.07;;;;;;;8.60;100.00;99388.19;4995492;28;20242;-79
2022/02/02 00:06:21;;;;;;;14.98;8.10;;;;;;;8.66;100.00;99403.06;4995505;28;20232;-79
2022/02/02 00:08:56;;;;;;;13.65;8.15;;;;;;;8.66;100.00;99395.91;4994998;28;20236;-79
2022/02/02 00:14:16;;;;;;;13.13;7.97;;;;;;;8.70;100.00;99401.97;4994709;28;20211;-78
2022/02/02 00:16:51;;;;;;;12.65;8.98;;;;;;;8.64;100.00;99402.28;4994962;28;20216;-78
2022/02/02 00:19:27;;;;;;;14.50;10.25;;;;;;;8.58;100.00;99419.59;4994978;28;20192;-78
2022/02/02 00:21:58;;;;;;;18.60;9.82;;;;;;;8.60;100.00;99415.03;4995183;28;20555;-78
2022/02/02 00:24:34;;;;;;;16.77;9.40;;;;;;;8.52;100.00;99395.75;4995393;28;20964;-78
2022/02/02 00:27:05;;;;;;;16.35;9.15;;;;;;;8.56;100.00;99392.84;4994979;28;20226;-78
2022/02/02 00:29:36;;;;;;;13.73;8.60;;;;;;;8.56;100.00;99387.47;4994439;28;20192;-78
2022/02/02 00:32:11;;;;;;;13.88;8.70;;;;;;;8.62;100.00;99397.03;4994862;28;20235;-78
2022/02/02 00:34:38;;;;;;;14.13;8.55;;;;;;;8.59;100.00;99405.22;4994982;28;20535;-78
2022/02/02 00:37:04;;;;;;;14.95;8.30;;;;;;;8.54;100.00;99396.56;4994868;28;20184;-78
2022/02/02 00:39:33;;;;;;;13.25;7.65;;;;;;;8.69;100.00;99389.50;4994646;28;20282;-78
2022/02/02 00:42:00;;;;;;;16.70;7.55;;;;;;;8.56;100.00;99392.84;4994835;28;20283;-78
2022/02/02 00:44:27;;;;;;;12.75;7.60;;;;;;;8.64;100.00;99391.56;4994122;28;20323;-78
2022/02/02 00:46:56;;;;;;;14.07;7.40;;;;;;;8.58;100.00;99392.75;4994206;28;20278;-78
2022/02/02 00:49:23;;;;;;;15.02;7.47;;;;;;;8.67;100.00;99399.47;4993909;28;20303;-78
2022/02/02 00:51:53;;;;;;;17.27;7.03;;;;;;;8.78;100.00;99399.75;4994693;28;20707;-78
2022/02/02 00:54:21;;;;;;;12.00;7.45;;;;;;;8.78;100.00;99399.75;4994160;28;20207;-78
2022/02/02 00:56:50;;;;;;;16.08;6.68;;;;;;;8.79;100.00;99389.88;4994156;28;20202;-78
2022/02/02 00:59:18;;;;;;;13.98;7.25;;;;;;;8.73;100.00;99383.03;4994185;28;20613;-78
2022/02/02 01:01:45;;;;;;;9.57;6.55;;;;;;;8.85;100.00;99385.03;4993903;28;20205;-78
2022/02/02 01:04:12;;;;;;;11.70;6.10;;;;;;;8.86;100.00;99391.28;4994294;28;20186;-78
2022/02/02 01:06:43;;;;;;;13.40;6.65;;;;;;;9.01;100.00;99403.88;4994276;28;20631;-78
2022/02/02 01:09:20;;;;;;;10.95;5.70;;;;;;;9.05;100.00;99421.56;4993251;28;20227;-78
2022/02/02 01:17:59;;;;;;;10.85;5.90;;;;;;;8.81;100.00;99410.31;4972280;28;20286;-78
2022/02/02 01:20:35;;;;;;;8.95;5.80;;;;;;;8.94;100.00;99414.06;4974558;28;20197;-78
2022/02/02 01:28:32;;;;;;;16.02;6.03;;;;;;;8.83;100.00;99423.66;4980664;28;20651;-78
2022/02/02 01:31:01;;;;;;;10.35;5.63;;;;;;;8.71;100.00;99430.56;4993580;28;20566;-78
2022/02/02 01:33:28;;;;;;;11.30;5.63;;;;;;;8.72;100.00;99432.28;4993884;28;20185;-78
2022/02/02 01:35:55;;;;;;;9.63;6.13;;;;;;;8.67;100.00;99431.66;4993854;28;20207;-78
2022/02/02 01:38:25;;;;;;;11.60;6.30;;;;;;;8.66;100.00;99438.88;4993360;28;20292;-78
2022/02/02 01:40:56;;;;;;;10.18;6.07;;;;;;;8.73;100.00;99432.22;4993839;28;20193;-78
2022/02/02 01:43:27;;;;;;;10.60;6.15;;;;;;;8.73;100.00;99442.09;4993820;28;20192;-78
2022/02/02 01:45:58;;;;;;;8.27;5.90;;;;;;;8.69;100.00;99449.44;4993155;28;20372;-79
2022/02/02 01:48:32;;;;;;;11.60;5.55;;;;;;;8.66;100.00;99444.22;4993160;28;20988;-78
2022/02/02 01:51:11;;;;;;;10.48;6.78;;;;;;;8.64;100.00;99432.72;4993190;28;20283;-78
2022/02/02 01:53:46;;;;;;;14.57;7.63;;;;;;;8.75;100.00;99445.53;4993569;28;20200;-79
2022/02/02 01:56:15;;;;;;;10.43;5.65;;;;;;;8.79;100.00;99440.88;4993552;28;20197;-78
2022/02/02 01:59:00;;;;;;;11.15;5.60;;;;;;;8.74;100.00;99447.34;4993242;28;20186;-79
2022/02/02 02:01:28;;;;;;;7.20;5.43;;;;;;;8.60;100.00;99441.88;4993016;28;20240;-79
2022/02/02 02:03:56;;;;;;;11.32;6.35;;;;;;;8.62;100.00;99442.66;4992986;28;20212;-78
2022/02/02 02:06:23;;;;;;;12.43;6.82;;;;;;;8.64;100.00;99454.19;4992534;28;20292;-78
2022/02/02 02:08:50;;;;;;;11.35;5.60;;;;;;;8.57;100.00;99460.81;4993067;28;20586;-79
2022/02/02 02:11:19;;;;;;;10.98;6.03;;;;;;;8.57;100.00;99450.09;4993260;28;20209;-79
2022/02/02 02:16:26;;;;;;;9.88;4.82;;;;;;;8.53;100.00;99446.69;4988031;28;20554;-79
2022/02/02 02:18:54;;;;;;;9.43;5.70;;;;;;;8.56;100.00;99457.25;4992935;28;20280;-79
2022/02/02 02:21:22;;;;;;;8.43;4.88;;;;;;;8.59;100.00;99455.34;4993252;28;20230;-79
2022/02/02 02:23:50;;;;;;;10.07;5.43;;;;;;;8.58;100.00;99440.22;4992772;28;20299;-79
2022/02/02 02:26:23;;;;;;;14.15;6.10;;;;;;;8.59;100.00;99440.09;4992415;28;20220;-78
2022/02/02 02:29:01;;;;;;;11.40;5.40;;;;;;;8.67;100.00;99440.59;4992656;28;20220;-79
2022/02/02 02:31:35;;;;;;;10.65;5.82;;;;;;;8.62;100.00;99439.97;4992955;28;20188;-78
2022/02/02 02:34:19;;;;;;;11.50;5.80;;;;;;;8.48;100.00;99438.00;4992963;28;20216;-79
2022/02/02 02:39:49;;;;;;;9.82;5.15;;;;;;;8.63;100.00;99433.63;4971868;28;20557;-79
2022/02/02 02:55:59;;;;;;;13.40;6.07;;;;;;;8.69;100.00;99427.94;4992090;28;20214;-79
2022/02/02 02:58:44;;;;;;;12.10;5.72;;;;;;;8.62;100.00;99436.41;4993008;28;20958;-78
2022/02/02 03:31:34;;;;;;;9.50;5.70;;;;;;;8.56;100.00;99441.13;4992111;28;20203;-78
2022/02/02 03:56:26;;;;;;;12.85;5.80;;;;;;;8.62;100.00;99448.03;4956315;28;20615;-78
2022/02/02 03:59:07;;;;;;;10.52;4.97;;;;;;;8.57;100.00;99442.03;4975721;28;20209;-78
2022/02/02 04:01:51;;;;;;;8.98;5.15;;;;;;;8.59;100.00;99434.75;4976241;28;20582;-79
2022/02/02 04:04:26;;;;;;;13.55;6.00;;;;;;;8.62;100.00;99436.41;4985666;28;20190;-78
2022/02/02 04:07:00;;;;;;;13.30;5.45;;;;;;;8.46;100.00;99447.09;4995230;28;20199;-78
2022/02/02 04:09:31;;;;;;;8.75;5.10;;;;;;;8.47;100.00;99452.34;4995423;28;20562;-78
2022/02/02 04:12:06;;;;;;;12.98;5.53;;;;;;;8.59;100.00;99456.22;4995146;28;20200;-79
2022/02/02 04:17:45;;;;;;;11.32;4.93;;;;;;;8.55;100.00;99470.75;4993431;28;20568;-78
2022/02/02 04:56:30;;;;;;;13.95;4.90;;;;;;;8.48;100.00;99491.69;4971312;28;20202;-79
2022/02/02 04:59:07;;;;;;;11.50;5.50;;;;;;;8.63;100.00;99497.19;4991398;28;20204;-79
2022/02/02 05:02:17;;;;;;;14.48;6.50;;;;;;;8.53;100.00;99491.44;4994427;28;20647;-78
2022/02/02 05:05:03;;;;;;;9.05;5.20;;;;;;;8.38;100.00;99489.50;4994042;28;20205;-78
2022/02/02 05:07:36;;;;;;;11.30;5.63;;;;;;;8.38;100.00;99489.50;4994511;28;20216;-78
2022/02/02 05:10:14;;;;;;;13.15;5.15;;;;;;;8.47;100.00;99491.75;4994097;28;20205;-79
2022/02/02 05:16:07;;;;;;;11.85;5.30;;;;;;;8.39;100.00;99489.44;5089518;27;20518;-78
2022/02/02 05:41:33;;;;;;;15.80;6.22;;;;;;;8.30;100.00;99504.19;5088408;28;20230;-78
2022/02/02 05:44:30;;;;;;;11.40;5.40;;;;;;;8.35;100.00;99502.13;5087319;28;20188;-78
2022/02/02 05:49:59;;;;;;;9.90;5.15;;;;;;;8.29;100.00;99514.97;5068556;28;20211;-79
2022/02/02 05:52:26;;;;;;;12.93;5.50;;;;;;;8.24;100.00;99517.03;5068846;28;20544;-78
2022/02/02 05:54:53;;;;;;;16.83;5.47;;;;;;;8.24;100.00;99517.03;5068205;28;20222;-79
2022/02/02 05:57:21;;;;;;;13.32;5.90;;;;;;;8.35;100.00;99514.69;5068525;28;20632;-78
2022/02/02 05:59:50;;;;;;;14.45;6.00;;;;;;;8.48;100.00;99531.03;5072098;28;20199;-79
2022/02/02 06:02:20;;;;;;;12.38;6.00;;;;;;;8.36;100.00;99532.50;5087808;28;20184;-78
2022/02/02 06:04:48;;;;;;;11.93;5.22;;;;;;;8.45;100.00;99532.06;5089064;28;20177;-79
2022/02/02 06:07:16;;;;;;;14.93;5.20;;;;;;;8.40;100.00;99534.13;5088260;28;20288;-79
2022/02/02 06:09:46;;;;;;;13.02;5.13;;;;;;;8.36;100.00;99532.50;5089165;28;20208;-80
2022/02/02 06:12:17;;;;;;;11.40;5.85;;;;;;;8.54;100.00;99533.41;5079829;28;20185;-79
2022/02/02 06:14:45;;;;;;;13.73;7.00;;;;;;;8.42;100.00;99537.59;5106446;28;20762;-80
2022/02/02 06:17:22;;;;;;;16.83;6.68;;;;;;;8.44;100.00;99532.16;5088602;28;20194;-78
2022/02/02 06:19:52;;;;;;;10.63;6.00;;;;;;;8.41;100.00;99540.34;5088432;28;20692;-78
2022/02/02 06:22:21;;;;;;;12.95;5.72;;;;;;;8.39;100.00;99534.16;5087917;28;20232;-78
2022/02/02 06:24:49;;;;;;;18.75;5.88;;;;;;;8.47;100.00;99543.59;5088266;28;20195;-77
2022/02/02 06:27:22;;;;;;;13.85;6.65;;;;;;;8.45;100.00;99548.16;5073715;28;20272;-77
2022/02/02 06:29:58;;;;;;;14.57;6.45;;;;;;;8.51;100.00;99549.69;5074658;28;20213;-78
2022/02/02 06:32:28;;;;;;;13.07;5.90;;;;;;;8.45;100.00;99555.34;5079644;28;20324;-78
2022/02/02 06:35:02;;;;;;;13.60;5.32;;;;;;;8.34;100.00;99561.22;5073921;28;20226;-77
2022/02/02 06:37:31;;;;;;;8.82;6.28;;;;;;;8.44;100.00;99559.84;5065188;28;20212;-79
2022/02/02 06:39:58;;;;;;;14.75;4.80;;;;;;;8.38;100.00;99560.13;5062532;28;20194;-80
2022/02/02 06:42:34;;;;;;;8.77;5.68;;;;;;;8.34;100.00;99566.56;5065520;28;20880;-79
2022/02/02 06:45:01;;;;;;;14.07;5.55;;;;;;;8.33;100.00;99564.84;5063100;28;20288;-80
2022/02/02 06:47:57;;;;;;;10.35;5.55;;;;;;;8.38;100.00;99573.53;5060234;28;20203;-81
2022/02/02 06:50:29;;;;;;;17.25;5.82;;;;;;;8.33;100.00;99575.59;5052193;28;20288;-78
2022/02/02 06:53:09;;;;;;;8.70;5.50;;;;;;;8.39;100.00;99572.59;5053643;28;20207;-79
2022/02/02 06:55:48;;;;;;;12.07;5.25;;;;;;;8.37;100.00;99574.50;5053083;28;20211;-79
2022/02/02 06:58:28;;;;;;;13.15;4.80;;;;;;;8.37;100.00;99585.22;5053433;28;20711;-79
2022/02/02 07:01:09;;;;;;;10.43;4.80;;;;;;;8.30;100.00;99594.53;5053421;28;20205;-79
2022/02/02 07:03:56;;;;;;;9.38;4.88;;;;;;;8.14;100.00;99602.44;5053462;28;20193;-79
2022/02/02 07:06:37;;;;;;;11.88;5.05;;;;;;;8.25;100.00;99609.94;5053411;28;20181;-79
2022/02/02 07:09:23;;;;;;;6.95;5.00;;;;;;;8.19;100.00;99615.63;5053238;28;20193;-78
2022/02/02 07:12:03;;;;;;;15.35;4.90;;;;;;;8.25;100.00;99620.69;5053165;28;20233;-78
2022/02/02 07:14:38;;;;;;;15.70;5.90;;;;;;;8.28;100.00;99623.22;5052757;28;20329;-78
2022/02/02 07:17:17;;;;;;;14.00;5.68;;;;;;;8.34;100.00;99617.56;5053224;28;20243;-78
2022/02/02 07:19:58;;;;;;;12.48;5.28;;;;;;;8.25;100.00;99618.84;5054747;28;20558;-81
2022/02/02 07:22:49;;;;;;;13.25;4.95;;;;;;;8.32;100.00;99622.13;5054700;28;20232;-81
2022/02/02 07:28:05;;;;;;;12.43;5.85;;;;;;;8.34;100.00;99626.50;5071977;28;20204;-82
2022/02/02 07:33:27;;;;;;;8.60;5.43;;;;;;;8.40;100.00;99646.81;5062592;28;20189;-82
2022/02/02 07:36:04;;;;;;;9.05;4.80;;;;;;;8.39;100.00;99647.72;5074200;28;20251;-78
2022/02/02 07:38:50;;;;;;;10.30;4.82;;;;;;;8.38;100.00;99661.22;5068083;28;20197;-78
2022/02/02 07:41:25;;;;;;;14.52;5.82;;;;;;;8.40;100.00;99662.91;5071804;28;20557;-78
2022/02/02 07:43:55;;;;;;;9.65;5.40;;;;;;;8.43;100.00;99667.25;5072763;28;20234;-82
2022/02/02 07:46:27;;;;;;;15.07;5.85;;;;;;;8.28;100.00;99669.69;5073079;28;20200;-79
2022/02/02 07:48:54;;;;;;;16.23;7.35;;;;;;;8.32;100.00;99676.66;5071952;28;20190;-78
2022/02/02 07:51:21;;;;;;;12.25;5.10;;;;;;;8.35;100.00;99664.91;5070210;28;20224;-79
2022/02/02 07:53:53;;;;;;;15.32;6.18;;;;;;;8.31;100.00;99657.94;5071036;28;20204;-78
2022/02/02 07:56:27;;;;;;;14.57;5.88;;;;;;;8.45;100.00;99665.38;5071562;28;20729;-79
2022/02/02 07:59:10;;;;;;;8.85;4.60;;;;;;;8.48;100.00;99671.47;5069811;28;20196;-79
2022/02/02 08:01:37;;;;;;;12.95;5.57;;;;;;;8.44;100.00;99669.88;5063094;28;20208;-77
2022/02/02 08:04:04;;;;;;;15.93;6.05;;;;;;;8.45;100.00;99676.09;5072763;28;20194;-81
2022/02/02 08:06:31;;;;;;;12.48;6.25;;;;;;;8.60;100.00;99677.19;5073552;28;20224;-81
2022/02/02 08:08:59;;;;;;;12.20;6.68;;;;;;;8.63;100.00;99674.34;5073315;28;20189;-82
2022/02/02 08:11:30;;;;;;;15.63;6.75;;;;;;;8.62;100.00;99684.22;5071569;28;20572;-81
2022/02/02 08:13:59;;;;;;;11.75;6.18;;;;;;;8.65;100.00;99684.06;5073002;28;20248;-82
2022/02/02 08:16:26;;;;;;;16.88;5.85;;;;;;;8.64;100.00;99679.63;5072985;28;20217;-82
2022/02/02 08:18:54;;;;;;;19.15;6.57;;;;;;;8.70;100.00;99671.25;5073692;28;20247;-82
2022/02/02 08:21:21;;;;;;;15.68;5.70;;;;;;;8.71;100.00;99686.44;5068493;28;20268;-76
2022/02/02 08:23:48;;;;;;;15.20;6.55;;;;;;;8.73;100.00;99689.94;5068024;28;20446;-78
2022/02/02 08:26:17;;;;;;;11.25;6.18;;;;;;;8.87;100.00;99686.56;5069125;28;20205;-78
2022/02/02 08:28:44;;;;;;;12.05;5.28;;;;;;;8.92;100.00;99692.56;5072075;28;20250;-78
2022/02/02 08:31:11;;;;;;;15.18;5.22;;;;;;;8.90;100.00;99690.91;5073561;28;20698;-82
2022/02/02 08:33:41;;;;;;;8.60;5.15;;;;;;;8.76;100.00;99681.72;5073738;28;20273;-82
2022/02/02 08:36:12;;;;;;;11.73;5.90;;;;;;;8.86;100.00;99683.94;5073545;28;20234;-82
2022/02/02 08:38:52;;;;;;;10.70;5.35;;;;;;;8.95;100.00;99692.44;5073514;28;20540;-82
2022/02/02 08:41:26;;;;;;;12.20;5.32;;;;;;;8.89;100.00;99700.78;5073030;28;20194;-84
2022/02/02 08:43:57;;;;;;;13.18;5.57;;;;;;;8.90;100.00;99707.00;5072849;28;20199;-80
2022/02/02 08:46:28;;;;;;;19.52;5.30;;;;;;;8.92;100.00;99708.66;5072493;28;20193;-85
2022/02/02 08:48:57;;;;;;;12.52;5.65;;;;;;;8.90;100.00;99715.06;5073123;28;20186;-82
2022/02/02 08:51:29;;;;;;;12.07;4.80;;;;;;;8.91;100.00;99711.41;5072881;28;20191;-84
2022/02/02 08:54:07;;;;;;;10.45;5.85;;;;;;;8.90;100.00;99710.56;5073199;28;20191;-83
2022/02/02 08:57:07;;;;;;;12.30;5.00;;;;;;;8.86;100.00;99719.72;5072407;28;20293;-83
2022/02/02 08:59:40;;;;;;;13.73;4.90;;;;;;;8.86;100.00;99718.84;5072349;28;20207;-81
2022/02/02 09:02:13;;;;;;;16.52;4.93;;;;;;;9.00;100.00;99719.06;5073206;28;20195;-84
2022/02/02 09:07:24;;;;;;;10.90;5.35;;;;;;;8.88;100.00;99733.94;5072734;28;20189;-87
2022/02/02 09:09:59;;;;;;;14.93;5.72;;;;;;;8.98;100.00;99726.31;5071732;28;20193;-79
2022/02/02 09:21:36;;;;;;;14.10;5.97;;;;;;;9.10;100.00;99727.50;5071824;28;20244;-82
2022/02/02 09:34:50;;;;;;;8.38;4.90;;;;;;;8.88;100.00;99746.50;5052196;28;20246;-86
2022/02/02 09:37:19;;;;;;;12.65;5.53;;;;;;;8.84;100.00;99745.78;5052366;28;20203;-83
2022/02/02 09:39:54;;;;;;;12.43;5.32;;;;;;;8.78;100.00;99746.09;5055227;28;20221;-87
2022/02/02 09:42:22;;;;;;;12.15;4.75;;;;;;;8.85;100.00;99755.56;5072542;28;20640;-85
2022/02/02 09:44:57;;;;;;;15.23;4.85;;;;;;;8.92;100.00;99743.59;5074779;28;20202;-87
2022/02/02 09:47:28;;;;;;;12.82;4.72;;;;;;;8.93;100.00;99753.41;5073889;28;20278;-83
2022/02/02 09:50:01;;;;;;;13.00;4.97;;;;;;;8.95;100.00;99751.50;5072126;28;20201;-83
2022/02/02 09:52:35;;;;;;;15.10;6.05;;;;;;;8.79;100.00;99760.38;5072629;28;20575;-85
2022/02/02 09:55:08;;;;;;;15.30;6.28;;;;;;;8.79;100.00;99768.41;5072573;28;20239;-82
2022/02/02 10:00:42;;;;;;;11.18;5.60;;;;;;;8.57;100.00;99777.50;5070034;28;20507;-84
2022/02/02 10:06:12;;;;;;;11.88;5.97;;;;;;;8.52;100.00;99780.41;5071250;28;20190;-82
2022/02/02 10:09:08;;;;;;;9.75;5.50;;;;;;;8.50;100.00;99784.09;5076597;28;20177;-81
2022/02/02 10:14:50;;;;;;;12.45;6.10;;;;;;;8.83;100.00;99781.63;5033147;28;20239;-84
2022/02/02 10:17:29;;;;;;;13.13;6.40;;;;;;;8.94;100.00;99781.97;5071108;28;20680;-86
2022/02/02 10:19:56;;;;;;;22.17;8.05;;;;;;;8.93;100.00;99787.41;5075842;28;20624;-82
2022/02/02 10:22:27;;;;;;;16.00;6.78;;;;;;;8.71;100.00;99787.59;5075579;28;20205;-84
2022/02/02 10:24:55;;;;;;;9.48;6.30;;;;;;;8.61;100.00;99788.94;5076171;28;20195;-84
2022/02/02 10:27:23;;;;;;;18.08;8.00;;;;;;;8.59;100.00;99796.19;5075594;28;20179;-85
2022/02/02 10:29:50;;;;;;;14.68;7.25;;;;;;;8.70;100.00;99793.88;5075692;28;20198;-84
2022/02/02 10:32:40;;;;;;;17.25;7.78;;;;;;;8.70;100.00;99788.53;5076117;28;20259;-85
2022/02/02 10:35:08;;;;;;;19.65;11.90;;;;;;;8.68;100.00;99790.41;5075059;28;20305;-81
2022/02/02 10:37:38;;;;;;;11.50;8.20;;;;;;;8.64;100.00;99792.38;5075283;28;20226;-81
2022/02/02 10:40:06;;;;;;;14.27;8.52;;;;;;;8.86;100.00;99792.19;5075112;28;20696;-83
2022/02/02 10:42:36;;;;;;;13.70;7.88;;;;;;;9.06;100.00;99793.06;5075184;28;20174;-82
2022/02/02 10:45:21;;;;;;;15.20;7.68;;;;;;;9.03;100.00;99786.03;5076054;28;20191;-83
2022/02/02 10:47:56;;;;;;;18.58;7.80;;;;;;;9.16;100.00;99797.06;5076334;28;20197;-82
2022/02/02 10:50:30;;;;;;;15.60;7.80;;;;;;;9.13;100.00;99800.75;5074616;28;20228;-84
2022/02/02 10:53:23;;;;;;;17.67;9.70;;;;;;;9.09;100.00;99800.97;5055977;28;20504;-88
2022/02/02 10:56:02;;;;;;;19.50;8.25;;;;;;;9.04;100.00;99803.88;5065768;28;20317;-82
2022/02/02 10:58:52;;;;;;;11.98;8.20;;;;;;;8.95;100.00;99810.59;5075103;28;20198;-82
2022/02/02 11:01:35;;;;;;;15.90;8.00;;;;;;;8.90;100.00;99811.75;5075243;28;20241;-81
2022/02/02 11:06:50;;;;;;;13.88;8.13;;;;;;;9.00;100.00;99807.69;5075008;28;20185;-83
2022/02/02 11:09:19;;;;;;;16.13;7.95;;;;;;;8.82;100.00;99822.84;5075020;28;20647;-82
2022/02/02 11:11:48;;;;;;;12.55;7.68;;;;;;;8.83;100.00;99821.03;5075450;28;20197;-82
2022/02/02 11:14:25;;;;;;;10.32;8.43;;;;;;;8.89;100.00;99835.03;5074690;28;20331;-84
2022/02/02 11:17:09;;;;;;;12.13;7.40;;;;;;;8.88;100.00;99832.41;5074908;28;20559;-88
2022/02/02 11:19:39;;;;;;;10.52;7.65;;;;;;;9.00;100.00;99837.22;5074541;28;20522;-81
2022/02/02 11:22:31;;;;;;;13.68;7.47;;;;;;;9.02;100.00;99826.38;5073652;28;20233;-81
2022/02/02 11:24:59;;;;;;;9.65;7.05;;;;;;;8.95;100.00;99839.22;5074692;28;20625;-81
2022/02/02 11:27:37;;;;;;;9.95;7.50;;;;;;;8.94;100.00;99837.50;5074498;28;20202;-82
2022/02/02 11:30:06;;;;;;;14.25;7.40;;;;;;;8.90;100.00;99833.22;5074286;28;20203;-83
2022/02/02 11:32:42;;;;;;;13.93;7.90;;;;;;;9.02;100.00;99823.69;5074223;28;20725;-81
2022/02/02 11:35:36;;;;;;;13.80;7.68;;;;;;;9.05;100.00;99823.56;5074689;28;20267;-81
2022/02/02 11:38:06;;;;;;;12.75;8.30;;;;;;;8.88;100.00;99830.59;5073480;28;20277;-83
2022/02/02 11:40:41;;;;;;;11.38;7.95;;;;;;;8.92;100.00;99824.16;5072585;28;20234;-80
2022/02/02 11:43:12;;;;;;;17.23;8.00;;;;;;;8.98;100.00;99820.31;5073653;28;20605;-81
2022/02/02 11:45:57;;;;;;;12.80;7.72;;;;;;;8.96;100.00;99820.38;5073724;28;20271;-86
2022/02/02 11:49:03;;;;;;;13.88;7.32;;;;;;;9.23;100.00;99814.63;5072046;28;20201;-82
2022/02/02 11:51:41;;;;;;;11.50;6.72;;;;;;;9.43;100.00;99820.81;5069001;28;20203;-84
2022/02/02 11:54:08;;;;;;;11.32;5.38;;;;;;;9.45;100.00;99809.06;5071924;28;20277;-81
2022/02/02 11:57:22;;;;;;;8.52;5.85;;;;;;;9.76;100.00;99804.78;5072238;28;20290;-81
2022/02/02 11:59:56;;;;;;;11.10;4.93;;;;;;;9.62;100.00;99800.13;5069774;28;20661;-81
2022/02/02 12:03:00;;;;;;;8.57;5.07;;;;;;;9.64;100.00;99802.75;5072384;28;20186;-81
2022/02/02 12:05:48;;;;;;;10.13;4.88;;;;;;;9.50;100.00;99803.44;5072473;28;20249;-80
2022/02/02 12:08:34;;;;;;;6.65;4.15;;;;;;;9.45;100.00;99811.75;5071714;28;20228;-81
2022/02/02 12:20:23;;;;;;;7.00;4.50;;;;;;;9.48;100.00;99846.50;5089399;28;20653;-79
2022/02/02 12:56:23;;;;;;;6.85;4.95;;;;;;;9.95;100.00;99840.56;5089575;28;20271;-77
2022/02/02 12:58:51;;;;;;;7.45;5.03;;;;;;;9.83;100.00;99841.16;5089299;28;20601;-78
2022/02/02 13:01:20;;;;;;;8.07;4.60;;;;;;;9.80;100.00;99844.03;5088759;28;20634;-79
2022/02/02 13:03:50;;;;;;;8.95;5.00;;;;;;;9.77;100.00;99853.13;5089295;28;20253;-81
2022/02/02 13:06:21;;;;;;;5.55;4.90;;;;;;;9.89;100.00;99850.75;5087619;28;20617;-81
2022/02/02 13:08:49;;;;;;;6.35;4.75;;;;;;;9.97;100.00;99849.41;5087190;28;20208;-82
2022/02/02 13:11:30;;;;;;;5.47;4.63;;;;;;;10.01;100.00;99840.22;5088354;28;20212;-82
2022/02/02 13:14:00;;;;;;;5.38;4.80;;;;;;;9.71;100.00;99852.56;5088128;28;20898;-81
2022/02/02 13:16:28;;;;;;;6.22;5.40;;;;;;;9.56;100.00;99855.06;5092440;28;20184;-80
2022/02/02 13:19:01;;;;;;;7.35;5.00;;;;;;;9.58;100.00;99863.91;5088260;28;20307;-79
2022/02/02 13:21:31;;;;;;;8.15;5.38;;;;;;;9.65;100.00;99863.63;5087981;28;20252;-79
2022/02/02 13:24:07;;;;;;;5.35;4.55;;;;;;;9.76;100.00;99854.06;5076633;28;20649;-82
2022/02/02 13:26:39;;;;;;;5.90;5.22;;;;;;;9.73;100.00;99856.91;5074301;28;20229;-80
2022/02/02 13:29:17;;;;;;;7.82;5.35;;;;;;;9.97;100.00;99861.97;5075040;28;20222;-81
2022/02/02 13:31:59;;;;;;;7.05;4.55;;;;;;;9.84;100.00;99871.66;5079113;28;20195;-83
2022/02/02 13:34:41;;;;;;;7.97;5.65;;;;;;;10.01;100.00;99860.88;5076361;28;20185;-81
2022/02/02 13:37:40;;;;;;;8.02;5.30;;;;;;;9.91;100.00;99865.00;5073963;28;20234;-81
2022/02/02 13:43:05;;;;;;;6.82;5.15;;;;;;;10.02;100.00;99873.38;5074015;28;20188;-83
2022/02/02 13:54:03;;;;;;;6.10;4.30;;;;;;;10.07;100.00;99882.09;5074047;28;20208;-81
2022/02/02 13:59:38;;;;;;;8.50;4.95;;;;;;;9.96;100.00;99885.31;5051324;28;20242;-82
2022/02/02 14:03:43;;;;;;;6.22;5.07;;;;;;;9.66;100.00;99889.56;5073772;28;20643;-81
2022/02/02 14:05:18;;;;;;;6.82;4.60;;;;;;;9.75;100.00;99884.59;5064667;28;20200;-81
2022/02/02 14:07:56;;;;;;;6.75;4.80;;;;;;;9.94;100.00;99891.72;5054167;28;20593;-80
2022/02/02 14:10:40;;;;;;;6.63;4.38;;;;;;;9.71;100.00;99888.38;5059778;28;20183;-82
2022/02/02 14:32:18;;;;;;;7.30;5.75;;;;;;;9.66;100.00;99911.94;5073051;28;20289;-81
2022/02/02 14:34:44;;;;;;;6.82;5.60;;;;;;;9.65;100.00;99896.75;5073043;28;20607;-81
2022/02/02 14:37:16;;;;;;;7.38;5.63;;;;;;;9.75;100.00;99898.03;5071818;28;20287;-81
2022/02/02 14:39:54;;;;;;;8.80;5.95;;;;;;;9.73;100.00;99899.06;5071678;28;20188;-81
2022/02/02 14:42:24;;;;;;;8.77;5.68;;;;;;;9.59;100.00;99902.44;5072036;28;20279;-83
2022/02/02 14:44:54;;;;;;;9.30;5.82;;;;;;;9.67;100.00;99902.06;5072419;28;20280;-85
2022/02/02 14:47:26;;;;;;;9.43;6.57;;;;;;;9.65;100.00;99912.88;5073080;28;20184;-84
2022/02/02 14:49:58;;;;;;;8.90;6.10;;;;;;;9.56;100.00;99905.25;5072540;28;20187;-82
2022/02/02 14:52:33;;;;;;;8.68;6.85;;;;;;;9.54;100.00;99907.16;5072827;28;20204;-83
2022/02/02 15:06:49;;;;;;;9.75;6.80;;;;;;;9.90;100.00;99914.34;5071937;28;20287;-82
2022/02/02 15:09:30;;;;;;;9.25;6.57;;;;;;;10.21;100.00;99927.97;5061872;28;20191;-79
2022/02/02 15:28:33;;;;;;;10.27;8.15;;;;;;;10.09;100.00;99928.63;5051841;28;20205;-87
2022/02/02 15:31:02;;;;;;;9.65;7.78;;;;;;;9.94;100.00;99927.56;5070578;28;20189;-86
2022/02/02 15:33:30;;;;;;;9.95;6.90;;;;;;;9.67;100.00;99934.31;5052271;28;20225;-87
2022/02/02 15:36:10;;;;;;;10.55;8.25;;;;;;;9.67;100.00;99937.00;5071090;28;20218;-87
2022/02/02 15:38:38;;;;;;;9.77;8.25;;;;;;;9.89;100.00;99932.31;5072343;28;20191;-84
2022/02/02 15:41:12;;;;;;;12.30;7.15;;;;;;;9.88;100.00;99927.91;5072818;28;20200;-82
2022/02/02 15:43:49;;;;;;;8.68;7.53;;;;;;;9.64;100.00;99932.66;5075639;28;20214;-88
2022/02/02 15:54:51;;;;;;;6.93;5.72;;;;;;;9.84;100.00;99937.06;5072821;28;20219;-82
2022/02/02 16:03:05;;;;;;;9.15;6.80;;;;;;;9.70;100.00;99942.22;5037167;28;20359;-84
2022/02/02 16:05:41;;;;;;;6.05;4.85;;;;;;;9.61;100.00;99943.56;5072068;28;20191;-88
2022/02/02 16:08:09;;;;;;;6.80;5.20;;;;;;;9.73;100.00;99942.97;5072057;28;20184;-84
2022/02/02 16:10:45;;;;;;;5.75;5.15;;;;;;;9.80;100.00;99941.69;5070588;28;20256;-84
2022/02/02 16:13:27;;;;;;;6.18;4.80;;;;;;;9.78;100.00;99946.28;5070933;28;20236;-84
2022/02/02 16:15:59;;;;;;;5.88;4.30;;;;;;;9.78;100.00;99942.72;5071908;28;20290;-82
2022/02/02 16:37:45;;;;;;;6.10;4.70;;;;;;;10.01;100.00;99941.56;5037005;28;20239;-84
2022/02/02 16:40:17;;;;;;;5.55;4.80;;;;;;;10.00;100.00;99937.16;5071332;28;20513;-87
2022/02/02 16:43:09;;;;;;;6.85;4.95;;;;;;;9.98;100.00;99939.06;5071686;28;20233;-86
2022/02/02 16:45:38;;;;;;;6.95;5.18;;;;;;;9.95;100.00;99949.94;5071860;28;20180;-85
2022/02/02 16:48:07;;;;;;;7.13;4.97;;;;;;;9.65;100.00;99957.72;5071485;28;20221;-82
2022/02/02 16:50:36;;;;;;;7.30;4.55;;;;;;;9.82;100.00;99961.31;5070014;28;20238;-84
2022/02/02 16:53:08;;;;;;;6.00;5.35;;;;;;;9.63;100.00;99967.66;5071236;28;20226;-84
2022/02/02 16:55:41;;;;;;;7.88;6.13;;;;;;;9.55;100.00;99966.22;5070517;28;20188;-85
2022/02/02 16:58:30;;;;;;;7.10;5.82;;;;;;;9.87;100.00;99966.47;5071143;28;20203;-83
2022/02/02 17:31:08;;;;;;;8.40;5.60;;;;;;;10.07;100.00;99994.22;5076135;28;20200;-81
2022/02/02 17:33:39;;;;;;;5.53;4.93;;;;;;;10.13;100.00;99991.19;5075264;28;20223;-81
2022/02/02 17:36:18;;;;;;;7.45;5.43;;;;;;;10.45;100.00;99995.00;5075730;28;20230;-87
2022/02/02 17:38:53;;;;;;;5.32;4.68;;;;;;;10.47;100.00;99990.41;5074262;28;20626;-86
2022/02/02 17:41:35;;;;;;;5.35;4.82;;;;;;;10.40;100.00;99992.56;5073452;28;20636;-83
2022/02/02 17:44:49;;;;;;;5.15;4.55;;;;;;;10.52;100.00;100001.81;5074741;28;20246;-81
2022/02/02 18:19:53;;;;;;;4.53;3.65;;;;;;;10.02;100.00;100002.53;5087851;28;20720;-79
2022/02/02 18:22:27;;;;;;;5.78;3.72;;;;;;;9.96;100.00;100000.13;5085039;28;20214;-86
2022/02/02 18:25:03;;;;;;;4.15;3.50;;;;;;;9.93;100.00;99997.59;5079090;28;20204;-79
2022/02/02 18:27:39;;;;;;;3.70;3.30;;;;;;;9.80;100.00;100003.56;5080970;28;20185;-80
2022/02/02 18:30:20;;;;;;;4.72;3.20;;;;;;;9.82;100.00;100007.03;5081492;28;20694;-80
2022/02/02 18:32:59;;;;;;;5.40;3.60;;;;;;;9.64;100.00;100007.94;5073911;28;20616;-78
2022/02/02 18:35:32;;;;;;;7.30;3.88;;;;;;;9.62;100.00;100009.81;5072973;28;20200;-78